SAS0377 ESNS-ESSA
Flight info
| Callsign | SAS0377 |
|---|---|
| Flight time | 0h 54m |
| Altitude | 32000 |
| Route | KETEL DCT BODRI DCT SIPRI T31 VACRA |
| Aircraft | A320/M-SDE3FGHIJ1RWXYZ/ALB1 |
Departure
| Time | 2026-04-14 11:33 |
|---|---|
| Airport | Skellefteå Airport (ESNS) |
Arrival
| Time | 2026-04-14 12:28 |
|---|---|
| Airport | Stockholm-Arlanda Airport (ESSA) |
| Time | Latitude | Longitude | Altitude | Speed | Heading |
|---|---|---|---|---|---|
| 2026-04-14 11:07 | 64.62374 | 21.06786 | 160 ft | 0 kts | 236° |
| 2026-04-14 11:28 | 64.62373 | 21.06782 | 160 ft | 1 kts | 247° |
| 2026-04-14 11:28 | 64.62376 | 21.06771 | 160 ft | 2 kts | 286° |
| 2026-04-14 11:28 | 64.62390 | 21.06759 | 160 ft | 3 kts | 355° |
| 2026-04-14 11:28 | 64.62422 | 21.06778 | 160 ft | 6 kts | 15° |
| 2026-04-14 11:29 | 64.62484 | 21.06819 | 159 ft | 11 kts | 17° |
| 2026-04-14 11:29 | 64.62545 | 21.06858 | 162 ft | 9 kts | 7° |
| 2026-04-14 11:29 | 64.62595 | 21.06747 | 159 ft | 14 kts | 285° |
| 2026-04-14 11:29 | 64.62628 | 21.06487 | 156 ft | 19 kts | 286° |
| 2026-04-14 11:30 | 64.62671 | 21.06149 | 156 ft | 22 kts | 287° |
| 2026-04-14 11:30 | 64.62696 | 21.05880 | 158 ft | 11 kts | 265° |
| 2026-04-14 11:30 | 64.62687 | 21.05725 | 162 ft | 9 kts | 268° |
| 2026-04-14 11:30 | 64.62708 | 21.05619 | 163 ft | 8 kts | 338° |
| 2026-04-14 11:31 | 64.62730 | 21.05670 | 161 ft | 4 kts | 102° |
| 2026-04-14 11:31 | 64.62724 | 21.05713 | 162 ft | 0 kts | 105° |
| 2026-04-14 11:32 | 64.62724 | 21.05718 | 162 ft | 0 kts | 106° |
| 2026-04-14 11:32 | 64.62721 | 21.05737 | 162 ft | 10 kts | 106° |
| 2026-04-14 11:32 | 64.62632 | 21.06454 | 155 ft | 83 kts | 106° |
| 2026-04-14 11:33 | 64.62419 | 21.08163 | 165 ft | 137 kts | 106° |
| 2026-04-14 11:33 | 64.62125 | 21.10522 | 477 ft | 156 kts | 103° |
| 2026-04-14 11:33 | 64.61828 | 21.12958 | 1270 ft | 156 kts | 106° |
| 2026-04-14 11:34 | 64.61015 | 21.18220 | 2087 ft | 195 kts | 129° |
| 2026-04-14 11:34 | 64.59825 | 21.19979 | 2462 ft | 219 kts | 169° |
| 2026-04-14 11:34 | 64.58216 | 21.20178 | 3057 ft | 241 kts | 179° |
| 2026-04-14 11:34 | 64.56515 | 21.20158 | 4008 ft | 248 kts | 180° |
| 2026-04-14 11:35 | 64.54806 | 21.20103 | 5017 ft | 251 kts | 179° |
| 2026-04-14 11:35 | 64.53049 | 21.20046 | 5998 ft | 254 kts | 179° |
| 2026-04-14 11:35 | 64.51272 | 21.20000 | 6984 ft | 257 kts | 179° |
| 2026-04-14 11:35 | 64.49471 | 21.19964 | 7901 ft | 260 kts | 179° |
| 2026-04-14 11:36 | 64.47652 | 21.19940 | 8834 ft | 262 kts | 179° |
| 2026-04-14 11:36 | 64.45816 | 21.19922 | 9768 ft | 265 kts | 179° |
| 2026-04-14 11:36 | 64.43963 | 21.19909 | 10669 ft | 268 kts | 178° |
| 2026-04-14 11:36 | 64.42026 | 21.19903 | 11025 ft | 290 kts | 178° |
| 2026-04-14 11:37 | 64.39975 | 21.19896 | 11460 ft | 305 kts | 179° |
| 2026-04-14 11:37 | 64.37834 | 21.19882 | 12130 ft | 311 kts | 178° |
| 2026-04-14 11:37 | 64.35647 | 21.19865 | 12823 ft | 317 kts | 178° |
| 2026-04-14 11:37 | 64.33422 | 21.19847 | 13552 ft | 322 kts | 179° |
| 2026-04-14 11:38 | 64.31162 | 21.19827 | 14272 ft | 327 kts | 179° |
| 2026-04-14 11:38 | 64.28872 | 21.19804 | 14927 ft | 332 kts | 179° |
| 2026-04-14 11:38 | 64.26551 | 21.19783 | 15584 ft | 335 kts | 178° |
| 2026-04-14 11:38 | 64.24206 | 21.19767 | 16235 ft | 339 kts | 178° |
| 2026-04-14 11:39 | 64.21868 | 21.19746 | 16870 ft | 342 kts | 179° |
| 2026-04-14 11:39 | 64.19485 | 21.19144 | 17504 ft | 349 kts | 190° |
| 2026-04-14 11:39 | 64.17144 | 21.17482 | 18140 ft | 355 kts | 197° |
| 2026-04-14 11:39 | 64.14814 | 21.15550 | 18782 ft | 358 kts | 197° |
| 2026-04-14 11:40 | 64.12454 | 21.13612 | 19348 ft | 362 kts | 197° |
| 2026-04-14 11:40 | 64.10071 | 21.11671 | 19941 ft | 365 kts | 196° |
| 2026-04-14 11:40 | 64.07667 | 21.09715 | 20555 ft | 368 kts | 196° |
| 2026-04-14 11:40 | 64.05239 | 21.07738 | 21129 ft | 372 kts | 196° |
| 2026-04-14 11:41 | 64.02790 | 21.05745 | 21710 ft | 375 kts | 196° |
| 2026-04-14 11:41 | 64.00360 | 21.03770 | 22273 ft | 378 kts | 195° |
| 2026-04-14 11:41 | 63.97871 | 21.01756 | 22841 ft | 381 kts | 195° |
| 2026-04-14 11:41 | 63.95361 | 20.99728 | 23405 ft | 384 kts | 195° |
| 2026-04-14 11:42 | 63.92831 | 20.97689 | 23981 ft | 387 kts | 195° |
| 2026-04-14 11:42 | 63.90280 | 20.95642 | 24469 ft | 390 kts | 195° |
| 2026-04-14 11:42 | 63.87710 | 20.93582 | 24934 ft | 393 kts | 195° |
| 2026-04-14 11:42 | 63.85121 | 20.91508 | 25383 ft | 396 kts | 195° |
| 2026-04-14 11:43 | 63.82544 | 20.89448 | 25817 ft | 399 kts | 195° |
| 2026-04-14 11:43 | 63.79919 | 20.87355 | 26251 ft | 402 kts | 195° |
| 2026-04-14 11:43 | 63.77271 | 20.85248 | 26696 ft | 405 kts | 195° |
| 2026-04-14 11:43 | 63.74599 | 20.83125 | 27076 ft | 409 kts | 195° |
| 2026-04-14 11:44 | 63.71904 | 20.80988 | 27477 ft | 412 kts | 195° |
| 2026-04-14 11:44 | 63.69190 | 20.78840 | 27873 ft | 415 kts | 195° |
| 2026-04-14 11:44 | 63.66452 | 20.76677 | 28272 ft | 418 kts | 196° |
| 2026-04-14 11:44 | 63.63700 | 20.74500 | 28664 ft | 421 kts | 196° |
| 2026-04-14 11:45 | 63.60930 | 20.72318 | 29049 ft | 424 kts | 196° |
| 2026-04-14 11:45 | 63.58138 | 20.70123 | 29424 ft | 426 kts | 196° |
| 2026-04-14 11:45 | 63.55367 | 20.67944 | 29795 ft | 429 kts | 196° |
| 2026-04-14 11:45 | 63.52536 | 20.65725 | 30177 ft | 432 kts | 196° |
| 2026-04-14 11:46 | 63.49690 | 20.63501 | 30558 ft | 435 kts | 196° |
| 2026-04-14 11:46 | 63.46821 | 20.61273 | 30853 ft | 439 kts | 197° |
| 2026-04-14 11:46 | 63.43920 | 20.59033 | 31111 ft | 443 kts | 197° |
| 2026-04-14 11:46 | 63.40994 | 20.56774 | 31408 ft | 446 kts | 197° |
| 2026-04-14 11:47 | 63.38055 | 20.54496 | 31707 ft | 449 kts | 197° |
| 2026-04-14 11:47 | 63.35096 | 20.52203 | 31999 ft | 452 kts | 197° |
| 2026-04-14 11:47 | 63.32127 | 20.49912 | 32379 ft | 452 kts | 197° |
| 2026-04-14 11:47 | 63.29190 | 20.47655 | 32526 ft | 452 kts | 197° |
| 2026-04-14 11:48 | 63.26267 | 20.45409 | 32549 ft | 437 kts | 197° |
| 2026-04-14 11:48 | 63.20587 | 20.41057 | 32549 ft | 429 kts | 197° |
| 2026-04-14 11:49 | 63.14942 | 20.36770 | 32547 ft | 428 kts | 197° |
| 2026-04-14 11:49 | 63.09306 | 20.32501 | 32546 ft | 428 kts | 197° |
| 2026-04-14 11:50 | 63.03710 | 20.28266 | 32543 ft | 428 kts | 197° |
| 2026-04-14 11:50 | 62.98076 | 20.24025 | 32552 ft | 428 kts | 197° |
| 2026-04-14 11:51 | 62.89616 | 20.17704 | 32563 ft | 428 kts | 197° |
| 2026-04-14 11:51 | 62.83959 | 20.13491 | 32540 ft | 430 kts | 197° |
| 2026-04-14 11:52 | 62.78323 | 20.09313 | 32531 ft | 431 kts | 197° |
| 2026-04-14 11:52 | 62.72638 | 20.05117 | 32532 ft | 431 kts | 197° |
| 2026-04-14 11:53 | 62.66952 | 20.00928 | 32531 ft | 432 kts | 197° |
| 2026-04-14 11:53 | 62.61260 | 19.96750 | 32542 ft | 432 kts | 198° |
| 2026-04-14 11:54 | 62.55589 | 19.92621 | 32532 ft | 433 kts | 198° |
| 2026-04-14 11:54 | 62.49869 | 19.88463 | 32529 ft | 434 kts | 198° |
| 2026-04-14 11:55 | 62.44133 | 19.84325 | 32522 ft | 435 kts | 198° |
| 2026-04-14 11:55 | 62.38392 | 19.80197 | 32526 ft | 435 kts | 198° |
| 2026-04-14 11:56 | 62.32686 | 19.76093 | 32530 ft | 435 kts | 198° |
| 2026-04-14 11:56 | 62.26932 | 19.71976 | 32527 ft | 436 kts | 198° |
| 2026-04-14 11:57 | 62.21169 | 19.67872 | 32526 ft | 437 kts | 198° |
| 2026-04-14 11:57 | 62.15399 | 19.63776 | 32530 ft | 437 kts | 198° |
| 2026-04-14 11:58 | 62.09667 | 19.59732 | 32532 ft | 437 kts | 198° |
| 2026-04-14 11:58 | 62.03892 | 19.55667 | 32528 ft | 437 kts | 199° |
| 2026-04-14 11:59 | 61.98118 | 19.51614 | 32524 ft | 437 kts | 199° |
| 2026-04-14 11:59 | 61.92334 | 19.47578 | 32525 ft | 437 kts | 199° |
| 2026-04-14 12:00 | 61.86552 | 19.43549 | 32522 ft | 437 kts | 199° |
| 2026-04-14 12:00 | 61.80806 | 19.39576 | 32523 ft | 438 kts | 199° |
| 2026-04-14 12:01 | 61.75020 | 19.35579 | 32522 ft | 438 kts | 199° |
| 2026-04-14 12:01 | 61.69225 | 19.31606 | 32529 ft | 438 kts | 199° |
| 2026-04-14 12:02 | 61.63429 | 19.27644 | 32527 ft | 438 kts | 199° |
| 2026-04-14 12:02 | 61.57678 | 19.23724 | 32529 ft | 437 kts | 199° |
| 2026-04-14 12:03 | 61.51884 | 19.19784 | 32519 ft | 438 kts | 199° |
| 2026-04-14 12:03 | 61.46091 | 19.15862 | 32522 ft | 438 kts | 199° |
| 2026-04-14 12:04 | 61.40302 | 19.11953 | 32400 ft | 433 kts | 199° |
| 2026-04-14 12:04 | 61.37463 | 19.10050 | 32134 ft | 426 kts | 199° |
| 2026-04-14 12:04 | 61.34693 | 19.08200 | 31885 ft | 422 kts | 199° |
| 2026-04-14 12:05 | 61.31908 | 19.06336 | 31626 ft | 418 kts | 199° |
| 2026-04-14 12:05 | 61.29147 | 19.04489 | 31195 ft | 416 kts | 200° |
| 2026-04-14 12:05 | 61.26394 | 19.02649 | 30748 ft | 415 kts | 200° |
| 2026-04-14 12:05 | 61.23650 | 19.00820 | 30263 ft | 414 kts | 200° |
| 2026-04-14 12:06 | 61.20918 | 18.99007 | 29836 ft | 411 kts | 199° |
| 2026-04-14 12:06 | 61.18205 | 18.97206 | 29396 ft | 408 kts | 200° |
| 2026-04-14 12:06 | 61.15513 | 18.95424 | 28994 ft | 405 kts | 199° |
| 2026-04-14 12:06 | 61.12875 | 18.93680 | 28591 ft | 403 kts | 199° |
| 2026-04-14 12:07 | 61.10211 | 18.91923 | 28183 ft | 401 kts | 199° |
| 2026-04-14 12:07 | 61.07555 | 18.90182 | 27765 ft | 400 kts | 199° |
| 2026-04-14 12:07 | 61.04912 | 18.88449 | 27353 ft | 398 kts | 199° |
| 2026-04-14 12:07 | 61.02275 | 18.86722 | 26930 ft | 397 kts | 198° |
| 2026-04-14 12:08 | 60.99646 | 18.85001 | 26512 ft | 396 kts | 198° |
| 2026-04-14 12:08 | 60.97028 | 18.83286 | 26081 ft | 395 kts | 198° |
| 2026-04-14 12:08 | 60.94414 | 18.81571 | 25639 ft | 394 kts | 198° |
| 2026-04-14 12:08 | 60.91839 | 18.79886 | 25200 ft | 393 kts | 198° |
| 2026-04-14 12:09 | 60.89231 | 18.78191 | 24744 ft | 393 kts | 197° |
| 2026-04-14 12:09 | 60.86625 | 18.76510 | 24295 ft | 393 kts | 197° |
| 2026-04-14 12:09 | 60.84019 | 18.74828 | 23812 ft | 392 kts | 197° |
| 2026-04-14 12:09 | 60.81428 | 18.73152 | 23359 ft | 389 kts | 197° |
| 2026-04-14 12:10 | 60.78858 | 18.71487 | 22913 ft | 386 kts | 197° |
| 2026-04-14 12:10 | 60.76306 | 18.69836 | 22468 ft | 383 kts | 196° |
| 2026-04-14 12:10 | 60.73782 | 18.68207 | 22021 ft | 379 kts | 196° |
| 2026-04-14 12:10 | 60.71307 | 18.66616 | 21570 ft | 376 kts | 195° |
| 2026-04-14 12:11 | 60.68829 | 18.65026 | 21174 ft | 371 kts | 195° |
| 2026-04-14 12:11 | 60.66377 | 18.63457 | 20726 ft | 368 kts | 195° |
| 2026-04-14 12:11 | 60.63964 | 18.61915 | 20268 ft | 359 kts | 195° |
| 2026-04-14 12:11 | 60.61619 | 18.60416 | 19828 ft | 349 kts | 194° |
| 2026-04-14 12:12 | 60.59331 | 18.58958 | 19420 ft | 342 kts | 194° |
| 2026-04-14 12:12 | 60.57064 | 18.57518 | 18999 ft | 340 kts | 194° |
| 2026-04-14 12:12 | 60.54807 | 18.56089 | 18557 ft | 338 kts | 194° |
| 2026-04-14 12:12 | 60.52572 | 18.54675 | 18117 ft | 335 kts | 194° |
| 2026-04-14 12:13 | 60.50392 | 18.53293 | 17709 ft | 331 kts | 194° |
| 2026-04-14 12:13 | 60.48208 | 18.51904 | 17302 ft | 327 kts | 194° |
| 2026-04-14 12:13 | 60.46051 | 18.50532 | 16898 ft | 324 kts | 194° |
| 2026-04-14 12:13 | 60.43909 | 18.49174 | 16493 ft | 320 kts | 194° |
| 2026-04-14 12:14 | 60.41794 | 18.47840 | 16101 ft | 317 kts | 194° |
| 2026-04-14 12:14 | 60.39694 | 18.46519 | 15706 ft | 314 kts | 194° |
| 2026-04-14 12:14 | 60.37617 | 18.45215 | 15323 ft | 311 kts | 194° |
| 2026-04-14 12:14 | 60.35553 | 18.43926 | 14924 ft | 309 kts | 194° |
| 2026-04-14 12:15 | 60.33510 | 18.42650 | 14546 ft | 306 kts | 194° |
| 2026-04-14 12:15 | 60.31512 | 18.41404 | 14153 ft | 304 kts | 194° |
| 2026-04-14 12:15 | 60.29501 | 18.40144 | 13744 ft | 301 kts | 194° |
| 2026-04-14 12:15 | 60.27493 | 18.39116 | 13365 ft | 295 kts | 185° |
| 2026-04-14 12:16 | 60.25461 | 18.38785 | 12939 ft | 292 kts | 181° |
| 2026-04-14 12:16 | 60.23437 | 18.38504 | 12525 ft | 291 kts | 181° |
| 2026-04-14 12:16 | 60.21424 | 18.38221 | 12114 ft | 289 kts | 181° |
| 2026-04-14 12:16 | 60.19419 | 18.37936 | 11704 ft | 288 kts | 181° |
| 2026-04-14 12:17 | 60.17437 | 18.37652 | 11456 ft | 281 kts | 181° |
| 2026-04-14 12:17 | 60.15537 | 18.37374 | 11234 ft | 275 kts | 181° |
| 2026-04-14 12:17 | 60.13648 | 18.37098 | 10759 ft | 270 kts | 181° |
| 2026-04-14 12:17 | 60.11781 | 18.36829 | 10164 ft | 266 kts | 181° |
| 2026-04-14 12:18 | 60.09946 | 18.36563 | 9737 ft | 263 kts | 181° |
| 2026-04-14 12:18 | 60.08117 | 18.36301 | 9363 ft | 264 kts | 181° |
| 2026-04-14 12:18 | 60.06287 | 18.36045 | 8988 ft | 263 kts | 181° |
| 2026-04-14 12:18 | 60.04458 | 18.35789 | 8605 ft | 263 kts | 181° |
| 2026-04-14 12:19 | 60.02634 | 18.35531 | 8226 ft | 263 kts | 181° |
| 2026-04-14 12:19 | 60.00838 | 18.35276 | 7855 ft | 262 kts | 182° |
| 2026-04-14 12:19 | 59.99026 | 18.35019 | 7518 ft | 260 kts | 182° |
| 2026-04-14 12:19 | 59.97223 | 18.34767 | 6894 ft | 258 kts | 182° |
| 2026-04-14 12:20 | 59.95442 | 18.34514 | 6324 ft | 254 kts | 182° |
| 2026-04-14 12:20 | 59.93695 | 18.34264 | 5934 ft | 251 kts | 182° |
| 2026-04-14 12:20 | 59.91960 | 18.33972 | 5569 ft | 250 kts | 188° |
| 2026-04-14 12:20 | 59.90307 | 18.32869 | 5207 ft | 253 kts | 205° |
| 2026-04-14 12:21 | 59.88903 | 18.30735 | 4819 ft | 257 kts | 224° |
| 2026-04-14 12:21 | 59.87918 | 18.27890 | 4463 ft | 249 kts | 236° |
| 2026-04-14 12:21 | 59.87069 | 18.24961 | 4111 ft | 239 kts | 236° |
| 2026-04-14 12:21 | 59.86254 | 18.22168 | 3820 ft | 227 kts | 236° |
| 2026-04-14 12:22 | 59.85480 | 18.19527 | 3765 ft | 217 kts | 235° |
| 2026-04-14 12:22 | 59.84705 | 18.16908 | 3673 ft | 220 kts | 235° |
| 2026-04-14 12:22 | 59.83927 | 18.14295 | 3575 ft | 219 kts | 235° |
| 2026-04-14 12:22 | 59.83150 | 18.11681 | 3475 ft | 220 kts | 235° |
| 2026-04-14 12:23 | 59.82373 | 18.09062 | 3375 ft | 219 kts | 235° |
| 2026-04-14 12:23 | 59.81601 | 18.06451 | 3286 ft | 219 kts | 235° |
| 2026-04-14 12:23 | 59.80847 | 18.03911 | 3177 ft | 211 kts | 233° |
| 2026-04-14 12:23 | 59.79886 | 18.01905 | 3107 ft | 193 kts | 207° |
| 2026-04-14 12:24 | 59.78712 | 18.00926 | 2951 ft | 177 kts | 186° |
| 2026-04-14 12:24 | 59.77518 | 18.00488 | 2704 ft | 172 kts | 185° |
| 2026-04-14 12:24 | 59.76350 | 18.00063 | 2470 ft | 168 kts | 184° |
| 2026-04-14 12:24 | 59.75208 | 17.99647 | 2230 ft | 164 kts | 184° |
| 2026-04-14 12:25 | 59.74117 | 17.99247 | 2007 ft | 155 kts | 185° |
| 2026-04-14 12:25 | 59.73099 | 17.98873 | 1795 ft | 143 kts | 184° |
| 2026-04-14 12:25 | 59.72112 | 17.98517 | 1597 ft | 144 kts | 184° |
| 2026-04-14 12:25 | 59.71139 | 17.98163 | 1404 ft | 142 kts | 184° |
| 2026-04-14 12:26 | 59.70191 | 17.97817 | 1217 ft | 136 kts | 184° |
| 2026-04-14 12:26 | 59.69262 | 17.97479 | 1028 ft | 136 kts | 185° |
| 2026-04-14 12:26 | 59.68330 | 17.97141 | 841 ft | 136 kts | 184° |
| 2026-04-14 12:26 | 59.67404 | 17.96804 | 672 ft | 135 kts | 187° |
| 2026-04-14 12:27 | 59.66487 | 17.96471 | 478 ft | 133 kts | 187° |
| 2026-04-14 12:27 | 59.65584 | 17.96147 | 293 ft | 130 kts | 185° |
| 2026-04-14 12:27 | 59.64694 | 17.95824 | 120 ft | 130 kts | 187° |
| 2026-04-14 12:27 | 59.63975 | 17.95562 | 113 ft | 69 kts | 191° |
| 2026-04-14 12:28 | 59.63603 | 17.95425 | 119 ft | 42 kts | 191° |
| 2026-04-14 12:28 | 59.63388 | 17.95268 | 118 ft | 31 kts | 214° |
| 2026-04-14 12:28 | 59.63260 | 17.95062 | 122 ft | 14 kts | 225° |
| 2026-04-14 12:28 | 59.63265 | 17.94920 | 122 ft | 11 kts | 327° |
| 2026-04-14 12:29 | 59.63354 | 17.94928 | 121 ft | 16 kts | 11° |
| 2026-04-14 12:29 | 59.63477 | 17.94972 | 116 ft | 20 kts | 10° |
| 2026-04-14 12:29 | 59.63631 | 17.95030 | 114 ft | 25 kts | 11° |
| 2026-04-14 12:29 | 59.63790 | 17.95086 | 110 ft | 24 kts | 11° |
| 2026-04-14 12:30 | 59.63955 | 17.95146 | 109 ft | 25 kts | 11° |
| 2026-04-14 12:30 | 59.64137 | 17.95212 | 107 ft | 29 kts | 10° |
| 2026-04-14 12:30 | 59.64345 | 17.95288 | 106 ft | 32 kts | 10° |
| 2026-04-14 12:30 | 59.64540 | 17.95359 | 105 ft | 27 kts | 10° |
| 2026-04-14 12:31 | 59.64709 | 17.95421 | 106 ft | 25 kts | 11° |
| 2026-04-14 12:31 | 59.64883 | 17.95484 | 108 ft | 22 kts | 10° |
| 2026-04-14 12:31 | 59.65023 | 17.95516 | 113 ft | 20 kts | 358° |
| 2026-04-14 12:31 | 59.65158 | 17.95456 | 119 ft | 19 kts | 345° |
| 2026-04-14 12:32 | 59.65286 | 17.95388 | 124 ft | 19 kts | 344° |
| 2026-04-14 12:32 | 59.65413 | 17.95320 | 126 ft | 20 kts | 345° |
| 2026-04-14 12:32 | 59.65554 | 17.95245 | 127 ft | 22 kts | 345° |
| 2026-04-14 12:32 | 59.65685 | 17.95175 | 127 ft | 15 kts | 345° |
| 2026-04-14 12:33 | 59.65750 | 17.95071 | 123 ft | 14 kts | 283° |
| 2026-04-14 12:33 | 59.65729 | 17.94855 | 120 ft | 18 kts | 256° |
| 2026-04-14 12:33 | 59.65696 | 17.94598 | 124 ft | 20 kts | 253° |
| 2026-04-14 12:33 | 59.65664 | 17.94337 | 126 ft | 20 kts | 255° |
| 2026-04-14 12:34 | 59.65626 | 17.94046 | 119 ft | 23 kts | 256° |
| 2026-04-14 12:34 | 59.65589 | 17.93748 | 113 ft | 17 kts | 256° |
| 2026-04-14 12:34 | 59.65561 | 17.93532 | 112 ft | 15 kts | 255° |
| 2026-04-14 12:34 | 59.65540 | 17.93385 | 111 ft | 8 kts | 241° |
| 2026-04-14 12:35 | 59.65494 | 17.93346 | 112 ft | 8 kts | 186° |
| 2026-04-14 12:35 | 59.65429 | 17.93357 | 112 ft | 11 kts | 166° |
| 2026-04-14 12:35 | 59.65385 | 17.93385 | 112 ft | 3 kts | 137° |
| 2026-04-14 12:35 | 59.65386 | 17.93433 | 112 ft | 4 kts | 78° |
| 2026-04-14 12:36 | 59.65394 | 17.93497 | 112 ft | 3 kts | 75° |
| 2026-04-14 12:36 | 59.65398 | 17.93527 | 112 ft | 2 kts | 76° |
| 2026-04-14 12:36 | 59.65398 | 17.93530 | 112 ft | 0 kts | 76° |